Unicom:                    122.8

AWOS:                  118.275

Elevation           1458’ MSL

TPA:                   2500’ MSL

06/24:         5003’ L   75’ W

PAPI:       06/Left     24/Left

(Operate lights on unicom freq.)

Traffic Pattern: Left

Beacon: Sunset to Sunrise

Windsock: yes, lighted

Segmented Circle: No

 

Cleveland Center: 126.72/291.65

FSS: Altoona

[Source: ADDS]
METAR
KFKL 042356Z AUTO 22006KT 10SM FEW085 02/M01 A2987 RMK AO2 SLP129 T00171006 10067 20017 53003 FZRANO =
KFKL 042320Z 0500/0524 23005KT P6SM BKN035 FM050900 33005KT 6SM -SN OVC008 FM051400 34012G18KT P6SM BKN015
TAF
KFKL 042320Z 0500/0524 23005KT P6SM BKN035 FM050900 33005KT 6SM -SN OVC008 FM051400 34012G18KT P6SM BKN015 =
[Source: ADDS]
METAR
KDUJ 042353Z AUTO 21004KT 10SM OVC008 03/01 A2986 RMK AO2 SLP124 T00280006 10044 20022 56002 =
KDUJ 042320Z 0500/0524 23005KT P6SM BKN035 FM050900 33005KT 6SM -SN OVC008 FM051400 34012G18KT P6SM BKN015
TAF
KDUJ 042320Z 0500/0524 23005KT P6SM BKN035 FM050900 33005KT 6SM -SN OVC008 FM051400 34012G18KT P6SM BKN015 =

Welcome to Clarion County Airport.

We look forward to serving all of your aviation needs.


Clarion County Airport is a General Aviation, Business Class airport serving the Clarion County Area in Central Western Pennsylvania.  Our 5,003' asphalt runway and gps approaches are capable of serving most of the general aviation fleet in most weather conditions.


If you are planning a fuel stop while flying in Western Pennsylvania, consider paying us a visit. Our prices are some of the lowest in the state Check prices here ----> www.airnav.com/fuel and enter identifier KAXQ or see current prices below. We can have you fueled and taxiing out to the runway in about 10 minutes. Our current hours of operation are Monday- Sunday 8:00AM-4:00PM. Holiday closures are Christmas Day and Thanksgiving. If you require use of the facilities during the holidays or after hours please call ahead and someone will be there to assist you.


- Airport Manager -  


                             CURRENT FUEL PRICES AS OF 5/14/2020      JET-A w/additive    $3.50               100LL     $4.50 CC  


                              Self Service fueling available 24/7, credit card reader enabled. Center point fueling available upon request.

                                                           For after hours fueling assistance please contact 814-282-6001.